sensor_id;sensor_type;location;lat;lon;timestamp;temperature;humidity
15160;DHT22;7680;48.800;9.680;2023-11-21T00:02:07;7.80;99.90
15160;DHT22;7680;48.800;9.680;2023-11-21T00:07:12;7.90;99.90
15160;DHT22;7680;48.800;9.680;2023-11-21T00:12:16;7.80;99.90
15160;DHT22;7680;48.800;9.680;2023-11-21T00:17:19;7.90;99.90
15160;DHT22;7680;48.800;9.680;2023-11-21T00:22:24;7.70;99.90
15160;DHT22;7680;48.800;9.680;2023-11-21T00:27:27;7.70;99.90
15160;DHT22;7680;48.800;9.680;2023-11-21T00:32:30;7.60;99.90
15160;DHT22;7680;48.800;9.680;2023-11-21T00:37:35;7.70;99.90
15160;DHT22;7680;48.800;9.680;2023-11-21T00:42:40;7.80;99.90
15160;DHT22;7680;48.800;9.680;2023-11-21T00:47:44;7.80;99.90
15160;DHT22;7680;48.800;9.680;2023-11-21T00:52:48;7.80;99.90
15160;DHT22;7680;48.800;9.680;2023-11-21T00:57:53;7.80;99.90
15160;DHT22;7680;48.800;9.680;2023-11-21T01:02:56;7.80;99.90
15160;DHT22;7680;48.800;9.680;2023-11-21T01:08:01;7.90;99.90
15160;DHT22;7680;48.800;9.680;2023-11-21T01:13:04;7.90;99.90
15160;DHT22;7680;48.800;9.680;2023-11-21T01:18:08;7.90;99.90
15160;DHT22;7680;48.800;9.680;2023-11-21T01:23:13;7.90;99.90
15160;DHT22;7680;48.800;9.680;2023-11-21T01:28:16;7.90;99.90
15160;DHT22;7680;48.800;9.680;2023-11-21T01:33:19;7.90;99.90
15160;DHT22;7680;48.800;9.680;2023-11-21T01:38:24;8.00;99.90
15160;DHT22;7680;48.800;9.680;2023-11-21T01:43:27;7.90;99.90
15160;DHT22;7680;48.800;9.680;2023-11-21T01:48:32;7.90;99.90
15160;DHT22;7680;48.800;9.680;2023-11-21T01:53:37;7.90;99.90
15160;DHT22;7680;48.800;9.680;2023-11-21T01:58:40;7.90;99.90
15160;DHT22;7680;48.800;9.680;2023-11-21T02:03:45;7.90;99.90
15160;DHT22;7680;48.800;9.680;2023-11-21T02:08:49;7.90;99.90
15160;DHT22;7680;48.800;9.680;2023-11-21T02:13:53;7.90;99.90
15160;DHT22;7680;48.800;9.680;2023-11-21T02:18:57;7.90;99.90
15160;DHT22;7680;48.800;9.680;2023-11-21T02:24:01;7.90;99.90
15160;DHT22;7680;48.800;9.680;2023-11-21T02:29:04;8.00;99.90
15160;DHT22;7680;48.800;9.680;2023-11-21T02:34:08;8.00;99.90
15160;DHT22;7680;48.800;9.680;2023-11-21T02:39:12;8.00;99.90
15160;DHT22;7680;48.800;9.680;2023-11-21T02:44:15;8.00;99.90
15160;DHT22;7680;48.800;9.680;2023-11-21T02:49:19;7.90;99.90
15160;DHT22;7680;48.800;9.680;2023-11-21T02:54:23;7.90;99.90
15160;DHT22;7680;48.800;9.680;2023-11-21T02:59:28;8.00;99.90
15160;DHT22;7680;48.800;9.680;2023-11-21T03:04:32;7.90;99.90
15160;DHT22;7680;48.800;9.680;2023-11-21T03:09:38;8.00;99.90
15160;DHT22;7680;48.800;9.680;2023-11-21T03:14:41;7.90;99.90
15160;DHT22;7680;48.800;9.680;2023-11-21T03:19:44;7.90;99.90
15160;DHT22;7680;48.800;9.680;2023-11-21T03:24:49;8.00;99.90
15160;DHT22;7680;48.800;9.680;2023-11-21T03:29:52;8.00;99.90
15160;DHT22;7680;48.800;9.680;2023-11-21T03:34:57;7.90;99.90
15160;DHT22;7680;48.800;9.680;2023-11-21T03:40:04;7.90;99.90
15160;DHT22;7680;48.800;9.680;2023-11-21T03:45:10;8.00;99.90
15160;DHT22;7680;48.800;9.680;2023-11-21T03:50:14;8.00;99.90
15160;DHT22;7680;48.800;9.680;2023-11-21T03:55:19;7.90;99.90
15160;DHT22;7680;48.800;9.680;2023-11-21T04:00:22;7.90;99.90
15160;DHT22;7680;48.800;9.680;2023-11-21T04:05:26;8.00;99.90
15160;DHT22;7680;48.800;9.680;2023-11-21T04:10:30;8.00;99.90
15160;DHT22;7680;48.800;9.680;2023-11-21T04:15:33;8.00;99.90
15160;DHT22;7680;48.800;9.680;2023-11-21T04:20:36;7.90;99.90
15160;DHT22;7680;48.800;9.680;2023-11-21T04:25:41;7.90;99.90
15160;DHT22;7680;48.800;9.680;2023-11-21T04:30:44;7.80;99.90
15160;DHT22;7680;48.800;9.680;2023-11-21T04:35:47;7.80;99.90
15160;DHT22;7680;48.800;9.680;2023-11-21T04:40:52;7.90;99.90
15160;DHT22;7680;48.800;9.680;2023-11-21T04:45:55;7.90;99.90
15160;DHT22;7680;48.800;9.680;2023-11-21T04:50:58;7.80;99.90
15160;DHT22;7680;48.800;9.680;2023-11-21T04:56:03;7.90;99.90
15160;DHT22;7680;48.800;9.680;2023-11-21T05:01:07;7.90;99.90
15160;DHT22;7680;48.800;9.680;2023-11-21T05:06:10;7.90;99.90
15160;DHT22;7680;48.800;9.680;2023-11-21T05:11:24;7.90;99.90
15160;DHT22;7680;48.800;9.680;2023-11-21T05:16:27;7.80;99.90
15160;DHT22;7680;48.800;9.680;2023-11-21T05:21:31;7.80;99.90
15160;DHT22;7680;48.800;9.680;2023-11-21T05:26:35;7.90;99.90
15160;DHT22;7680;48.800;9.680;2023-11-21T05:31:38;7.90;99.90
15160;DHT22;7680;48.800;9.680;2023-11-21T05:36:43;7.90;99.90
15160;DHT22;7680;48.800;9.680;2023-11-21T05:41:48;7.90;99.90
15160;DHT22;7680;48.800;9.680;2023-11-21T05:46:51;7.90;99.90
15160;DHT22;7680;48.800;9.680;2023-11-21T05:51:55;7.80;99.90
15160;DHT22;7680;48.800;9.680;2023-11-21T05:57:03;7.80;99.90
15160;DHT22;7680;48.800;9.680;2023-11-21T06:02:06;7.80;99.90
15160;DHT22;7680;48.800;9.680;2023-11-21T06:07:09;7.80;99.90
15160;DHT22;7680;48.800;9.680;2023-11-21T06:12:14;7.90;99.90
15160;DHT22;7680;48.800;9.680;2023-11-21T06:17:18;7.90;99.90
15160;DHT22;7680;48.800;9.680;2023-11-21T06:22:22;7.80;99.90
15160;DHT22;7680;48.800;9.680;2023-11-21T06:27:26;7.80;99.90
15160;DHT22;7680;48.800;9.680;2023-11-21T06:32:29;7.70;99.90
15160;DHT22;7680;48.800;9.680;2023-11-21T06:37:33;7.70;99.90
15160;DHT22;7680;48.800;9.680;2023-11-21T06:42:37;7.80;99.90
15160;DHT22;7680;48.800;9.680;2023-11-21T06:47:41;7.80;99.90
15160;DHT22;7680;48.800;9.680;2023-11-21T06:52:44;7.70;99.90
15160;DHT22;7680;48.800;9.680;2023-11-21T06:57:49;7.80;99.90
15160;DHT22;7680;48.800;9.680;2023-11-21T07:02:53;7.80;99.90
15160;DHT22;7680;48.800;9.680;2023-11-21T07:07:57;7.80;99.90
15160;DHT22;7680;48.800;9.680;2023-11-21T07:13:07;7.90;99.90
15160;DHT22;7680;48.800;9.680;2023-11-21T07:18:12;7.90;99.90
15160;DHT22;7680;48.800;9.680;2023-11-21T07:23:16;7.80;99.90
15160;DHT22;7680;48.800;9.680;2023-11-21T07:28:20;7.90;99.90
15160;DHT22;7680;48.800;9.680;2023-11-21T07:33:23;7.90;99.90
15160;DHT22;7680;48.800;9.680;2023-11-21T07:38:27;7.90;99.90
15160;DHT22;7680;48.800;9.680;2023-11-21T07:43:32;8.00;99.90
15160;DHT22;7680;48.800;9.680;2023-11-21T07:48:37;8.00;99.90
15160;DHT22;7680;48.800;9.680;2023-11-21T07:53:40;8.00;99.90
15160;DHT22;7680;48.800;9.680;2023-11-21T07:58:44;8.00;99.90
15160;DHT22;7680;48.800;9.680;2023-11-21T08:03:48;8.10;99.90
15160;DHT22;7680;48.800;9.680;2023-11-21T08:08:54;8.10;99.90
15160;DHT22;7680;48.800;9.680;2023-11-21T08:13:58;8.20;99.90
15160;DHT22;7680;48.800;9.680;2023-11-21T08:19:02;8.20;99.90
15160;DHT22;7680;48.800;9.680;2023-11-21T08:24:06;8.20;99.90
15160;DHT22;7680;48.800;9.680;2023-11-21T08:29:14;8.30;99.90
15160;DHT22;7680;48.800;9.680;2023-11-21T08:34:18;8.40;99.90
15160;DHT22;7680;48.800;9.680;2023-11-21T08:39:22;8.40;99.90
15160;DHT22;7680;48.800;9.680;2023-11-21T08:44:27;8.30;99.90
15160;DHT22;7680;48.800;9.680;2023-11-21T08:49:30;8.40;99.90
15160;DHT22;7680;48.800;9.680;2023-11-21T08:54:34;8.40;99.90
15160;DHT22;7680;48.800;9.680;2023-11-21T08:59:39;8.50;99.90
15160;DHT22;7680;48.800;9.680;2023-11-21T09:04:42;8.60;99.90
15160;DHT22;7680;48.800;9.680;2023-11-21T09:09:49;8.60;99.90
15160;DHT22;7680;48.800;9.680;2023-11-21T09:14:53;8.60;99.90
15160;DHT22;7680;48.800;9.680;2023-11-21T09:19:57;8.70;99.90
15160;DHT22;7680;48.800;9.680;2023-11-21T09:25:00;8.60;99.90
15160;DHT22;7680;48.800;9.680;2023-11-21T09:30:08;8.70;99.90
15160;DHT22;7680;48.800;9.680;2023-11-21T09:35:12;8.80;99.90
15160;DHT22;7680;48.800;9.680;2023-11-21T09:40:21;8.80;99.90
15160;DHT22;7680;48.800;9.680;2023-11-21T09:45:27;8.80;99.90
15160;DHT22;7680;48.800;9.680;2023-11-21T09:50:33;8.90;99.90
15160;DHT22;7680;48.800;9.680;2023-11-21T09:55:42;8.90;99.90
15160;DHT22;7680;48.800;9.680;2023-11-21T10:00:48;8.90;99.90
15160;DHT22;7680;48.800;9.680;2023-11-21T10:05:53;9.00;99.90
15160;DHT22;7680;48.800;9.680;2023-11-21T10:11:01;9.00;99.90
15160;DHT22;7680;48.800;9.680;2023-11-21T10:16:09;9.10;99.90
15160;DHT22;7680;48.800;9.680;2023-11-21T10:21:15;9.10;99.90
15160;DHT22;7680;48.800;9.680;2023-11-21T10:26:19;9.20;99.90
15160;DHT22;7680;48.800;9.680;2023-11-21T10:31:33;9.30;99.90
15160;DHT22;7680;48.800;9.680;2023-11-21T10:36:37;9.40;99.90
15160;DHT22;7680;48.800;9.680;2023-11-21T10:41:41;9.50;99.90
15160;DHT22;7680;48.800;9.680;2023-11-21T10:46:45;9.90;99.90
15160;DHT22;7680;48.800;9.680;2023-11-21T10:51:53;9.90;99.90
15160;DHT22;7680;48.800;9.680;2023-11-21T10:56:59;9.80;99.90
15160;DHT22;7680;48.800;9.680;2023-11-21T11:02:12;9.70;99.90
15160;DHT22;7680;48.800;9.680;2023-11-21T11:07:26;9.60;99.90
15160;DHT22;7680;48.800;9.680;2023-11-21T11:12:31;9.60;99.90
15160;DHT22;7680;48.800;9.680;2023-11-21T11:17:37;9.60;99.90
15160;DHT22;7680;48.800;9.680;2023-11-21T11:22:46;9.60;99.90
15160;DHT22;7680;48.800;9.680;2023-11-21T11:27:57;9.50;99.90
15160;DHT22;7680;48.800;9.680;2023-11-21T11:33:12;9.50;99.90
15160;DHT22;7680;48.800;9.680;2023-11-21T11:38:22;9.60;99.90
15160;DHT22;7680;48.800;9.680;2023-11-21T11:43:27;9.60;99.90
15160;DHT22;7680;48.800;9.680;2023-11-21T11:48:35;9.60;99.90
15160;DHT22;7680;48.800;9.680;2023-11-21T11:53:41;9.70;99.90
15160;DHT22;7680;48.800;9.680;2023-11-21T11:58:45;9.70;99.90
15160;DHT22;7680;48.800;9.680;2023-11-21T12:09:37;9.60;99.90
15160;DHT22;7680;48.800;9.680;2023-11-21T12:14:40;9.70;99.90
15160;DHT22;7680;48.800;9.680;2023-11-21T12:19:45;9.70;99.90
15160;DHT22;7680;48.800;9.680;2023-11-21T12:24:48;9.70;99.90
15160;DHT22;7680;48.800;9.680;2023-11-21T12:29:51;9.80;99.90
15160;DHT22;7680;48.800;9.680;2023-11-21T12:34:56;9.80;99.90
15160;DHT22;7680;48.800;9.680;2023-11-21T12:39:59;9.90;99.90
15160;DHT22;7680;48.800;9.680;2023-11-21T12:45:12;9.90;99.90
15160;DHT22;7680;48.800;9.680;2023-11-21T12:50:24;9.90;99.90
15160;DHT22;7680;48.800;9.680;2023-11-21T12:55:32;9.90;99.90
15160;DHT22;7680;48.800;9.680;2023-11-21T13:00:42;10.00;99.90
15160;DHT22;7680;48.800;9.680;2023-11-21T13:05:48;9.90;99.90
15160;DHT22;7680;48.800;9.680;2023-11-21T13:10:55;9.80;99.90
15160;DHT22;7680;48.800;9.680;2023-11-21T13:16:01;9.60;99.90
15160;DHT22;7680;48.800;9.680;2023-11-21T13:21:08;9.60;99.90
15160;DHT22;7680;48.800;9.680;2023-11-21T13:26:15;9.50;99.90
15160;DHT22;7680;48.800;9.680;2023-11-21T13:31:18;9.40;99.90
15160;DHT22;7680;48.800;9.680;2023-11-21T13:36:29;9.50;99.90
15160;DHT22;7680;48.800;9.680;2023-11-21T13:41:35;9.40;99.90
15160;DHT22;7680;48.800;9.680;2023-11-21T13:46:40;9.50;99.90
15160;DHT22;7680;48.800;9.680;2023-11-21T13:51:45;9.50;99.90
15160;DHT22;7680;48.800;9.680;2023-11-21T13:56:52;9.50;99.90
15160;DHT22;7680;48.800;9.680;2023-11-21T14:01:57;9.60;99.90
15160;DHT22;7680;48.800;9.680;2023-11-21T14:07:03;9.60;99.90
15160;DHT22;7680;48.800;9.680;2023-11-21T14:12:22;9.50;99.90
15160;DHT22;7680;48.800;9.680;2023-11-21T14:17:25;9.40;99.90
15160;DHT22;7680;48.800;9.680;2023-11-21T14:22:30;9.30;99.90
15160;DHT22;7680;48.800;9.680;2023-11-21T14:27:33;9.10;99.90
15160;DHT22;7680;48.800;9.680;2023-11-21T14:32:37;9.10;99.90
15160;DHT22;7680;48.800;9.680;2023-11-21T14:37:42;9.00;99.90
15160;DHT22;7680;48.800;9.680;2023-11-21T14:42:46;8.90;99.90
15160;DHT22;7680;48.800;9.680;2023-11-21T14:47:49;8.80;99.90
15160;DHT22;7680;48.800;9.680;2023-11-21T14:53:01;8.80;99.90
15160;DHT22;7680;48.800;9.680;2023-11-21T14:58:07;8.80;99.90
15160;DHT22;7680;48.800;9.680;2023-11-21T15:03:14;8.80;99.90
15160;DHT22;7680;48.800;9.680;2023-11-21T15:08:39;8.70;99.90
15160;DHT22;7680;48.800;9.680;2023-11-21T15:13:44;8.60;99.90
15160;DHT22;7680;48.800;9.680;2023-11-21T15:18:50;8.60;99.90
15160;DHT22;7680;48.800;9.680;2023-11-21T15:23:55;8.70;99.90
15160;DHT22;7680;48.800;9.680;2023-11-21T15:28:58;8.60;99.90
15160;DHT22;7680;48.800;9.680;2023-11-21T15:34:01;8.70;99.90
15160;DHT22;7680;48.800;9.680;2023-11-21T15:39:08;8.70;99.90
15160;DHT22;7680;48.800;9.680;2023-11-21T15:44:12;8.60;99.90
15160;DHT22;7680;48.800;9.680;2023-11-21T15:49:16;8.60;99.90
15160;DHT22;7680;48.800;9.680;2023-11-21T15:54:24;8.60;99.90
15160;DHT22;7680;48.800;9.680;2023-11-21T15:59:29;8.60;99.90
15160;DHT22;7680;48.800;9.680;2023-11-21T16:04:34;8.50;99.90
15160;DHT22;7680;48.800;9.680;2023-11-21T16:09:40;8.50;99.90
15160;DHT22;7680;48.800;9.680;2023-11-21T16:14:44;8.60;99.90
15160;DHT22;7680;48.800;9.680;2023-11-21T16:19:49;8.60;99.90
15160;DHT22;7680;48.800;9.680;2023-11-21T16:24:54;8.60;99.90
15160;DHT22;7680;48.800;9.680;2023-11-21T16:29:57;8.60;99.90
15160;DHT22;7680;48.800;9.680;2023-11-21T16:35:00;8.60;99.90
15160;DHT22;7680;48.800;9.680;2023-11-21T16:40:07;8.50;99.90
15160;DHT22;7680;48.800;9.680;2023-11-21T16:45:12;8.40;99.90
15160;DHT22;7680;48.800;9.680;2023-11-21T16:50:16;8.30;99.90
15160;DHT22;7680;48.800;9.680;2023-11-21T16:55:21;8.30;99.90
15160;DHT22;7680;48.800;9.680;2023-11-21T17:00:25;8.10;99.90
15160;DHT22;7680;48.800;9.680;2023-11-21T17:05:29;8.10;99.90
15160;DHT22;7680;48.800;9.680;2023-11-21T17:10:34;8.00;99.90
15160;DHT22;7680;48.800;9.680;2023-11-21T17:15:38;7.90;99.90
15160;DHT22;7680;48.800;9.680;2023-11-21T17:20:42;7.80;99.90
15160;DHT22;7680;48.800;9.680;2023-11-21T17:25:46;7.70;99.90
15160;DHT22;7680;48.800;9.680;2023-11-21T17:30:49;7.70;99.90
15160;DHT22;7680;48.800;9.680;2023-11-21T17:35:53;7.60;99.90
15160;DHT22;7680;48.800;9.680;2023-11-21T17:40:58;7.50;99.90
15160;DHT22;7680;48.800;9.680;2023-11-21T17:46:02;7.40;99.90
15160;DHT22;7680;48.800;9.680;2023-11-21T17:51:05;7.20;99.90
15160;DHT22;7680;48.800;9.680;2023-11-21T17:56:14;7.20;99.90
15160;DHT22;7680;48.800;9.680;2023-11-21T18:01:18;7.00;99.90
15160;DHT22;7680;48.800;9.680;2023-11-21T18:06:22;7.00;99.90
15160;DHT22;7680;48.800;9.680;2023-11-21T18:11:26;7.00;99.90
15160;DHT22;7680;48.800;9.680;2023-11-21T18:16:29;7.00;99.90
15160;DHT22;7680;48.800;9.680;2023-11-21T18:21:33;7.00;99.90
15160;DHT22;7680;48.800;9.680;2023-11-21T18:26:37;7.10;99.90
15160;DHT22;7680;48.800;9.680;2023-11-21T18:31:41;7.10;99.90
15160;DHT22;7680;48.800;9.680;2023-11-21T18:36:44;7.10;99.90
15160;DHT22;7680;48.800;9.680;2023-11-21T18:41:49;7.20;99.90
15160;DHT22;7680;48.800;9.680;2023-11-21T18:46:53;7.10;99.90
15160;DHT22;7680;48.800;9.680;2023-11-21T18:51:56;7.20;99.90
15160;DHT22;7680;48.800;9.680;2023-11-21T18:57:01;7.20;99.90
15160;DHT22;7680;48.800;9.680;2023-11-21T19:02:04;7.20;99.90
15160;DHT22;7680;48.800;9.680;2023-11-21T19:07:10;7.30;99.90
15160;DHT22;7680;48.800;9.680;2023-11-21T19:12:15;7.20;99.90
15160;DHT22;7680;48.800;9.680;2023-11-21T19:17:18;7.20;99.90
15160;DHT22;7680;48.800;9.680;2023-11-21T19:22:23;7.20;99.90
15160;DHT22;7680;48.800;9.680;2023-11-21T19:27:27;7.20;99.90
15160;DHT22;7680;48.800;9.680;2023-11-21T19:32:31;7.10;99.90
15160;DHT22;7680;48.800;9.680;2023-11-21T19:37:37;7.20;99.90
15160;DHT22;7680;48.800;9.680;2023-11-21T19:42:42;7.20;99.90
15160;DHT22;7680;48.800;9.680;2023-11-21T19:47:45;7.20;99.90
15160;DHT22;7680;48.800;9.680;2023-11-21T19:52:49;7.20;99.90
15160;DHT22;7680;48.800;9.680;2023-11-21T19:57:54;7.20;99.90
15160;DHT22;7680;48.800;9.680;2023-11-21T20:02:57;7.20;99.90
15160;DHT22;7680;48.800;9.680;2023-11-21T20:08:00;7.20;99.90
15160;DHT22;7680;48.800;9.680;2023-11-21T20:13:05;7.20;99.90
15160;DHT22;7680;48.800;9.680;2023-11-21T20:18:09;7.10;99.90
15160;DHT22;7680;48.800;9.680;2023-11-21T20:23:13;7.20;99.90
15160;DHT22;7680;48.800;9.680;2023-11-21T20:28:19;7.10;99.90
15160;DHT22;7680;48.800;9.680;2023-11-21T20:33:22;7.20;99.90
15160;DHT22;7680;48.800;9.680;2023-11-21T20:38:25;7.10;99.90
15160;DHT22;7680;48.800;9.680;2023-11-21T20:43:30;7.10;99.90
15160;DHT22;7680;48.800;9.680;2023-11-21T20:48:33;7.20;99.90
15160;DHT22;7680;48.800;9.680;2023-11-21T20:53:37;7.20;99.90
15160;DHT22;7680;48.800;9.680;2023-11-21T20:58:42;7.10;99.90
15160;DHT22;7680;48.800;9.680;2023-11-21T21:03:45;7.20;99.90
15160;DHT22;7680;48.800;9.680;2023-11-21T21:08:48;7.20;99.90
15160;DHT22;7680;48.800;9.680;2023-11-21T21:13:54;7.20;99.90
15160;DHT22;7680;48.800;9.680;2023-11-21T21:18:57;7.20;99.90
15160;DHT22;7680;48.800;9.680;2023-11-21T21:24:01;7.20;99.90
15160;DHT22;7680;48.800;9.680;2023-11-21T21:29:06;7.30;99.90
15160;DHT22;7680;48.800;9.680;2023-11-21T21:34:11;7.30;99.90
15160;DHT22;7680;48.800;9.680;2023-11-21T21:39:16;7.30;99.90
15160;DHT22;7680;48.800;9.680;2023-11-21T21:44:22;7.30;99.90
15160;DHT22;7680;48.800;9.680;2023-11-21T21:49:26;7.30;99.90
15160;DHT22;7680;48.800;9.680;2023-11-21T21:54:29;7.30;99.90
15160;DHT22;7680;48.800;9.680;2023-11-21T21:59:33;7.30;99.90
15160;DHT22;7680;48.800;9.680;2023-11-21T22:04:36;7.40;99.90
15160;DHT22;7680;48.800;9.680;2023-11-21T22:09:41;7.40;99.90
15160;DHT22;7680;48.800;9.680;2023-11-21T22:14:46;7.40;99.90
15160;DHT22;7680;48.800;9.680;2023-11-21T22:19:49;7.40;99.90
15160;DHT22;7680;48.800;9.680;2023-11-21T22:24:53;7.40;99.90
15160;DHT22;7680;48.800;9.680;2023-11-21T22:29:58;7.40;99.90
15160;DHT22;7680;48.800;9.680;2023-11-21T22:35:01;7.40;99.90
15160;DHT22;7680;48.800;9.680;2023-11-21T22:40:06;7.40;99.90
15160;DHT22;7680;48.800;9.680;2023-11-21T22:45:12;7.40;99.90
15160;DHT22;7680;48.800;9.680;2023-11-21T22:50:15;7.40;99.90
15160;DHT22;7680;48.800;9.680;2023-11-21T22:55:18;7.40;99.90
15160;DHT22;7680;48.800;9.680;2023-11-21T23:00:23;7.50;99.90
15160;DHT22;7680;48.800;9.680;2023-11-21T23:05:31;7.50;99.90
15160;DHT22;7680;48.800;9.680;2023-11-21T23:10:34;7.50;99.90
15160;DHT22;7680;48.800;9.680;2023-11-21T23:15:41;7.50;99.90
15160;DHT22;7680;48.800;9.680;2023-11-21T23:20:48;7.50;99.90
15160;DHT22;7680;48.800;9.680;2023-11-21T23:25:51;7.40;99.90
15160;DHT22;7680;48.800;9.680;2023-11-21T23:30:57;7.50;99.90
15160;DHT22;7680;48.800;9.680;2023-11-21T23:36:01;7.40;99.90
15160;DHT22;7680;48.800;9.680;2023-11-21T23:41:04;7.40;99.90
15160;DHT22;7680;48.800;9.680;2023-11-21T23:46:08;7.40;99.90
15160;DHT22;7680;48.800;9.680;2023-11-21T23:51:12;7.40;99.90
15160;DHT22;7680;48.800;9.680;2023-11-21T23:56:15;7.30;99.90
